Time;durP1;ratioP1;P1;durP2;ratioP2;P2;SDS_P1;SDS_P2;PMS_P1;PMS_P2;Temp;Humidity;BMP_temperature;BMP_pressure;BME280_temperature;BME280_humidity;BME280_pressure;Samples;Min_cycle;Max_cycle;Signal;HPM_P1;HPM_P2
2021/05/25 00:00:22;;;;;;;2.10;1.70;;;16.20;99.90;;;;;;6233754;23;20158;-85
2021/05/25 00:02:49;;;;;;;2.27;2.00;;;16.20;99.90;;;;;;6235251;23;20400;-86
2021/05/25 00:05:21;;;;;;;1.60;1.50;;;16.20;99.90;;;;;;6259379;23;20388;-86
2021/05/25 00:07:48;;;;;;;1.97;1.77;;;16.20;99.90;;;;;;6259054;23;20417;-87
2021/05/25 00:10:15;;;;;;;5.60;2.07;;;16.20;99.90;;;;;;6234039;23;20381;-87
2021/05/25 00:12:41;;;;;;;3.53;1.67;;;16.20;99.90;;;;;;6237919;23;20384;-84
2021/05/25 00:15:13;;;;;;;2.33;2.03;;;16.20;99.90;;;;;;6237114;23;20367;-87
2021/05/25 00:17:39;;;;;;;2.13;1.73;;;16.10;99.90;;;;;;6237998;23;20371;-86
2021/05/25 00:20:15;;;;;;;3.17;1.40;;;16.10;99.90;;;;;;6212483;23;20393;-85
2021/05/25 00:22:41;;;;;;;2.93;1.50;;;16.00;99.90;;;;;;6185530;23;20412;-85
2021/05/25 00:25:09;;;;;;;2.30;1.30;;;16.00;99.90;;;;;;6211077;23;20429;-86
2021/05/25 00:27:35;;;;;;;1.23;1.13;;;15.90;99.90;;;;;;6206915;23;20181;-87
2021/05/25 00:30:01;;;;;;;3.53;1.93;;;15.80;99.90;;;;;;6207415;23;20367;-86
2021/05/25 00:32:27;;;;;;;2.60;1.70;;;15.60;99.90;;;;;;6200982;23;20189;-85
2021/05/25 00:34:58;;;;;;;1.93;1.77;;;15.50;99.90;;;;;;6210274;23;20192;-86
2021/05/25 00:37:26;;;;;;;2.57;1.50;;;15.40;99.90;;;;;;6209112;23;20227;-84
2021/05/25 00:40:00;;;;;;;1.97;1.20;;;15.40;99.90;;;;;;6181606;23;20400;-84
2021/05/25 00:42:38;;;;;;;1.80;1.70;;;15.30;99.90;;;;;;6199741;23;20408;-84
2021/05/25 00:45:06;;;;;;;3.60;1.67;;;15.20;99.90;;;;;;6174762;23;20391;-85
2021/05/25 00:47:50;;;;;;;3.23;1.30;;;15.10;99.90;;;;;;6147372;23;20499;-85
2021/05/25 00:50:22;;;;;;;1.77;1.33;;;15.00;99.90;;;;;;6170685;23;20422;-85
2021/05/25 00:52:55;;;;;;;1.70;1.53;;;15.00;99.90;;;;;;6171930;23;20510;-85
2021/05/25 00:55:27;;;;;;;1.73;1.10;;;14.90;99.90;;;;;;6173270;23;20356;-86
2021/05/25 00:58:02;;;;;;;3.90;1.60;;;14.90;99.90;;;;;;6148206;23;20381;-84
2021/05/25 01:00:43;;;;;;;5.07;1.70;;;14.80;99.90;;;;;;6173630;23;20466;-84
2021/05/25 01:03:11;;;;;;;2.27;1.37;;;14.70;99.90;;;;;;6146610;23;20407;-84
2021/05/25 01:05:38;;;;;;;1.90;1.67;;;14.50;99.90;;;;;;6173570;23;20423;-84
2021/05/25 01:08:26;;;;;;;1.73;1.63;;;14.40;99.90;;;;;;6170595;23;20423;-85
2021/05/25 01:11:04;;;;;;;2.87;1.90;;;14.20;99.90;;;;;;6147949;23;20375;-84
2021/05/25 01:13:45;;;;;;;1.70;1.37;;;14.10;99.90;;;;;;6145370;23;20419;-84
2021/05/25 01:16:14;;;;;;;4.03;1.33;;;14.00;99.90;;;;;;6170929;23;20443;-84
2021/05/25 01:18:57;;;;;;;4.50;1.40;;;13.90;99.90;;;;;;6144635;23;20405;-84
2021/05/25 01:21:26;;;;;;;3.03;1.43;;;13.80;99.90;;;;;;6142856;23;20379;-84
2021/05/25 01:24:14;;;;;;;5.33;2.30;;;13.80;99.90;;;;;;6167092;23;20377;-84
2021/05/25 01:26:48;;;;;;;2.53;1.20;;;13.70;99.90;;;;;;6135607;23;20380;-84
2021/05/25 01:29:29;;;;;;;3.23;1.80;;;13.60;99.90;;;;;;6140538;23;20758;-85
2021/05/25 01:32:05;;;;;;;3.90;1.80;;;13.60;99.90;;;;;;6163015;23;20828;-84
2021/05/25 01:34:35;;;;;;;3.03;1.37;;;13.50;99.90;;;;;;6137000;23;20775;-84
2021/05/25 01:37:04;;;;;;;1.87;1.67;;;13.40;99.90;;;;;;6136245;23;20766;-84
2021/05/25 01:39:33;;;;;;;3.27;2.13;;;13.40;99.90;;;;;;6163432;23;20399;-84
2021/05/25 01:42:10;;;;;;;1.87;1.63;;;13.40;99.90;;;;;;6153768;23;20398;-84
2021/05/25 01:44:41;;;;;;;2.20;2.00;;;13.50;99.90;;;;;;6183685;23;20450;-84
2021/05/25 01:47:18;;;;;;;2.03;1.83;;;13.50;99.90;;;;;;6183210;23;20788;-85
2021/05/25 01:49:47;;;;;;;2.10;1.90;;;13.50;99.90;;;;;;6172464;23;20446;-84
2021/05/25 01:52:18;;;;;;;3.20;2.17;;;13.60;99.90;;;;;;6172023;23;20451;-84
2021/05/25 01:54:49;;;;;;;2.87;2.63;;;13.60;99.90;;;;;;6172043;23;20368;-84
2021/05/25 01:57:24;;;;;;;1.70;1.47;;;13.60;99.90;;;;;;6146435;23;20384;-85
2021/05/25 01:59:57;;;;;;;1.90;1.60;;;13.60;99.90;;;;;;6145144;23;20410;-84
2021/05/25 02:02:40;;;;;;;2.70;2.00;;;13.60;99.90;;;;;;6172211;23;20376;-84
2021/05/25 02:05:12;;;;;;;1.97;1.80;;;13.60;99.90;;;;;;6171039;23;20347;-85
2021/05/25 02:07:38;;;;;;;2.33;1.67;;;13.60;99.90;;;;;;6171317;23;20474;-84
2021/05/25 02:10:07;;;;;;;3.20;1.50;;;13.60;99.90;;;;;;6170819;23;20372;-84
2021/05/25 02:12:39;;;;;;;4.20;3.80;;;13.50;99.90;;;;;;6168531;23;20414;-84
2021/05/25 02:15:13;;;;;;;4.90;2.63;;;13.60;99.90;;;;;;6169150;23;20398;-84
2021/05/25 02:17:45;;;;;;;3.00;2.80;;;13.50;99.90;;;;;;6145671;23;20697;-84
2021/05/25 02:20:17;;;;;;;3.37;2.83;;;13.50;99.90;;;;;;6170166;23;20375;-84
2021/05/25 02:22:46;;;;;;;3.33;1.90;;;13.40;99.90;;;;;;6144521;23;20478;-84
2021/05/25 02:25:17;;;;;;;3.90;2.07;;;13.40;99.90;;;;;;6145516;23;20387;-84
2021/05/25 02:27:46;;;;;;;2.43;1.90;;;13.40;99.90;;;;;;6172848;23;20163;-84
2021/05/25 02:30:28;;;;;;;10.53;9.57;;;13.40;99.90;;;;;;6170441;23;20364;-84
2021/05/25 02:33:08;;;;;;;1.90;1.70;;;13.30;99.90;;;;;;6142324;23;20419;-84
2021/05/25 02:35:39;;;;;;;2.50;2.10;;;13.30;99.90;;;;;;6144815;23;20394;-84
2021/05/25 02:38:31;;;;;;;3.60;2.20;;;13.30;99.90;;;;;;6168390;23;20376;-85
2021/05/25 02:41:31;;;;;;;2.13;1.90;;;13.30;99.90;;;;;;6137198;23;20703;-84
2021/05/25 02:44:05;;;;;;;2.17;1.97;;;13.40;99.90;;;;;;6141648;23;20707;-84
2021/05/25 02:46:49;;;;;;;2.37;1.80;;;13.30;99.90;;;;;;6140978;23;20854;-85
2021/05/25 02:53:05;;;;;;;;;;;;;;;;;;;;;
2021/05/25 02:55:42;;;;;;;3.50;2.37;;;13.30;99.90;;;;;;6171543;23;20371;-84
2021/05/25 02:58:17;;;;;;;2.83;2.47;;;13.30;99.90;;;;;;6145844;23;20434;-84
2021/05/25 03:01:05;;;;;;;2.23;2.03;;;13.30;99.90;;;;;;6145250;23;20379;-84
2021/05/25 03:03:50;;;;;;;2.70;2.20;;;13.30;99.90;;;;;;6170528;23;20400;-84
2021/05/25 03:06:25;;;;;;;2.30;1.67;;;13.40;99.90;;;;;;6144083;23;20379;-84
2021/05/25 03:09:32;;;;;;;2.20;2.00;;;13.40;99.90;;;;;;6145863;23;20423;-84
2021/05/25 03:12:00;;;;;;;2.60;2.10;;;13.30;99.90;;;;;;6144000;23;20395;-84
2021/05/25 03:14:26;;;;;;;4.37;2.77;;;13.40;99.90;;;;;;6169678;23;20431;-84
2021/05/25 03:17:20;;;;;;;;;;;;;;;;;;;;;
2021/05/25 03:20:00;;;;;;;2.53;2.30;;;13.40;99.90;;;;;;6170809;23;20344;-84
2021/05/25 03:22:35;;;;;;;4.47;3.23;;;13.30;99.90;;;;;;6169907;23;20410;-84
2021/05/25 03:25:15;;;;;;;3.90;3.37;;;13.30;99.90;;;;;;6146480;23;20432;-84
2021/05/25 03:28:09;;;;;;;3.37;2.53;;;13.30;99.90;;;;;;6145941;23;20499;-84
2021/05/25 03:30:39;;;;;;;2.97;2.57;;;13.30;99.90;;;;;;6167382;23;20375;-84
2021/05/25 03:33:22;;;;;;;3.33;2.90;;;13.30;99.90;;;;;;6143429;23;20923;-84
2021/05/25 03:35:54;;;;;;;3.00;2.70;;;13.30;99.90;;;;;;6170229;23;20363;-84
2021/05/25 03:38:31;;;;;;;4.87;2.63;;;13.20;99.90;;;;;;6168094;23;20697;-84
2021/05/25 03:41:33;;;;;;;3.17;2.63;;;13.20;99.90;;;;;;6165179;23;20360;-85
2021/05/25 03:44:36;;;;;;;2.90;2.63;;;13.20;99.90;;;;;;6169710;23;20441;-84
2021/05/25 03:47:20;;;;;;;;;;;;;;;;;;;;;
2021/05/25 03:49:47;;;;;;;4.03;2.83;;;13.20;99.90;;;;;;6169158;23;20418;-84
2021/05/25 03:52:13;;;;;;;2.13;2.00;;;13.20;99.90;;;;;;6168210;23;20380;-85
2021/05/25 03:54:48;;;;;;;2.53;2.30;;;13.10;99.90;;;;;;6168404;23;20384;-85
2021/05/25 04:00:30;;;;;;;2.17;2.07;;;13.10;99.90;;;;;;6132346;23;20363;-84
2021/05/25 04:03:02;;;;;;;3.07;2.37;;;13.10;99.90;;;;;;6154564;23;20406;-84
2021/05/25 04:05:31;;;;;;;2.57;2.37;;;13.20;99.90;;;;;;6155010;23;20368;-84
2021/05/25 04:08:04;;;;;;;2.80;2.00;;;13.30;99.90;;;;;;6178451;23;20479;-84
2021/05/25 04:10:44;;;;;;;2.77;2.33;;;13.30;99.90;;;;;;6180306;23;20344;-84
2021/05/25 04:13:26;;;;;;;2.87;2.60;;;13.30;99.90;;;;;;6155245;23;20403;-84
2021/05/25 04:19:16;;;;;;;2.77;2.43;;;13.60;99.90;;;;;;6171520;23;20382;-84
2021/05/25 04:21:47;;;;;;;3.67;3.40;;;13.80;99.90;;;;;;6147695;23;20411;-85
2021/05/25 04:24:14;;;;;;;4.03;2.50;;;14.00;99.90;;;;;;6170357;23;20379;-85
2021/05/25 04:26:43;;;;;;;4.80;2.47;;;13.90;99.90;;;;;;6169789;23;20380;-84
2021/05/25 04:29:14;;;;;;;2.93;2.63;;;13.90;99.90;;;;;;6143305;23;20427;-85
2021/05/25 04:32:08;;;;;;;;;;;;;;;;;;;;;
2021/05/25 04:34:44;;;;;;;4.80;3.00;;;13.60;99.90;;;;;;6163118;23;20414;-84
2021/05/25 04:37:15;;;;;;;2.60;2.40;;;13.60;99.90;;;;;;6167140;23;20359;-85
2021/05/25 04:39:47;;;;;;;2.77;2.57;;;13.60;99.90;;;;;;6180775;23;20454;-85
2021/05/25 04:42:49;;;;;;;3.57;2.30;;;13.50;99.90;;;;;;6181048;23;20451;-85
2021/05/25 04:45:21;;;;;;;3.70;2.70;;;13.50;99.90;;;;;;6191358;23;20437;-85
2021/05/25 04:47:47;;;;;;;2.63;2.47;;;13.40;99.90;;;;;;6168320;23;20422;-84
2021/05/25 04:50:42;;;;;;;2.40;2.17;;;13.40;99.90;;;;;;6165236;23;20368;-84
2021/05/25 04:53:13;;;;;;;4.00;2.70;;;13.50;99.90;;;;;;6154783;23;20168;-85
2021/05/25 04:55:51;;;;;;;4.23;2.30;;;13.70;99.90;;;;;;6140258;23;20375;-85
2021/05/25 04:58:33;;;;;;;3.47;2.43;;;13.80;99.90;;;;;;6170108;23;20375;-84
2021/05/25 05:01:04;;;;;;;4.90;2.23;;;13.90;99.90;;;;;;6165602;23;20355;-83
2021/05/25 05:08:18;;;;;;;2.10;1.90;;;14.30;99.90;;;;;;6049860;23;20416;-85
2021/05/25 05:10:56;;;;;;;3.37;2.90;;;14.60;99.90;;;;;;6037086;23;20393;-85
2021/05/25 05:13:38;;;;;;;2.30;2.00;;;14.60;99.90;;;;;;6074073;23;20397;-85
2021/05/25 05:16:21;;;;;;;2.93;2.27;;;14.70;99.90;;;;;;6082303;23;20380;-85
2021/05/25 05:43:24;;;;;;;;;;;;;;;;;;;;;
2021/05/25 05:46:02;;;;;;;3.10;2.80;;;13.80;99.90;;;;;;6197461;23;20413;-85
2021/05/25 05:48:31;;;;;;;2.90;2.63;;;13.80;99.90;;;;;;6171181;23;20485;-85
2021/05/25 05:51:12;;;;;;;3.00;2.80;;;13.70;99.90;;;;;;6171628;23;20406;-86
2021/05/25 05:54:03;;;;;;;7.13;2.90;;;13.80;99.90;;;;;;6171064;23;20430;-85
2021/05/25 05:56:47;;;;;;;3.20;2.17;;;13.80;99.90;;;;;;6181587;23;20438;-86
2021/05/25 05:59:14;;;;;;;3.50;2.30;;;13.80;99.90;;;;;;6198091;23;20452;-85
2021/05/25 06:01:41;;;;;;;4.53;2.27;;;13.80;99.90;;;;;;6197055;23;20363;-87
2021/05/25 06:04:10;;;;;;;2.57;2.37;;;13.80;99.90;;;;;;6195885;23;20707;-84
2021/05/25 06:06:35;;;;;;;7.57;6.63;;;13.80;99.90;;;;;;6183312;23;20829;-85
2021/05/25 06:09:02;;;;;;;3.37;2.87;;;13.80;99.90;;;;;;6165506;23;20427;-86
2021/05/25 06:15:00;;;;;;;4.03;2.70;;;13.70;99.90;;;;;;6170502;23;20359;-87
2021/05/25 06:17:29;;;;;;;4.73;2.10;;;13.70;99.90;;;;;;6171440;23;20448;-86
2021/05/25 06:19:55;;;;;;;4.10;2.30;;;13.80;99.90;;;;;;6168646;23;20456;-87
2021/05/25 06:22:26;;;;;;;6.40;2.90;;;13.80;99.90;;;;;;6169937;23;20469;-88
2021/05/25 06:24:52;;;;;;;2.67;1.93;;;13.70;99.90;;;;;;6169255;23;20419;-86
2021/05/25 06:27:18;;;;;;;2.97;1.90;;;13.60;99.90;;;;;;6146291;23;20392;-87
2021/05/25 06:29:50;;;;;;;1.50;1.30;;;13.60;99.90;;;;;;6170745;23;20167;-88
2021/05/25 06:32:16;;;;;;;1.60;1.50;;;13.70;99.90;;;;;;6178007;23;20415;-87
2021/05/25 06:34:51;;;;;;;6.00;1.53;;;13.80;99.90;;;;;;6181020;23;20368;-86
2021/05/25 06:37:17;;;;;;;3.60;1.60;;;13.80;99.90;;;;;;6180815;23;20451;-87
2021/05/25 06:39:46;;;;;;;3.90;2.20;;;13.90;99.90;;;;;;6180531;23;20367;-87
2021/05/25 06:42:12;;;;;;;2.00;1.70;;;13.90;99.90;;;;;;6179431;23;20356;-87
2021/05/25 06:44:38;;;;;;;2.40;2.20;;;14.00;99.90;;;;;;6146231;23;20446;-87
2021/05/25 06:47:04;;;;;;;2.00;1.60;;;13.90;99.90;;;;;;6168478;23;20696;-87
2021/05/25 06:49:33;;;;;;;4.17;1.60;;;13.90;99.90;;;;;;6171645;23;20454;-87
2021/05/25 06:52:01;;;;;;;2.13;1.90;;;13.90;99.90;;;;;;6172429;23;20502;-87
2021/05/25 06:54:29;;;;;;;1.70;1.60;;;13.70;99.90;;;;;;6172254;23;20459;-87
2021/05/25 06:56:57;;;;;;;2.37;1.30;;;13.70;99.90;;;;;;6169585;23;20411;-87
2021/05/25 06:59:33;;;;;;;3.03;1.53;;;13.70;99.90;;;;;;6169237;23;20420;-87
2021/05/25 07:02:00;;;;;;;2.90;1.37;;;13.80;99.90;;;;;;6167525;23;20356;-85
2021/05/25 07:04:34;;;;;;;2.07;1.27;;;13.90;99.90;;;;;;6169166;23;20777;-87
2021/05/25 07:06:59;;;;;;;3.90;1.20;;;13.90;99.90;;;;;;6174510;23;20466;-86
2021/05/25 07:09:28;;;;;;;2.50;2.00;;;14.10;99.90;;;;;;6176545;23;20434;-85
2021/05/25 07:11:54;;;;;;;2.40;1.20;;;14.10;99.90;;;;;;6148433;23;20198;-87
2021/05/25 07:14:20;;;;;;;1.50;1.20;;;14.30;99.90;;;;;;6172495;23;20404;-86
2021/05/25 07:16:52;;;;;;;2.03;1.30;;;14.30;99.90;;;;;;6145814;23;20168;-87
2021/05/25 07:19:27;;;;;;;1.50;1.30;;;14.40;99.90;;;;;;6169793;23;20451;-88
2021/05/25 07:21:53;;;;;;;2.97;1.83;;;14.50;99.90;;;;;;6169864;23;20381;-88
2021/05/25 07:24:18;;;;;;;2.00;1.60;;;14.50;99.90;;;;;;6168373;23;20383;-87
2021/05/25 07:26:44;;;;;;;3.67;2.13;;;14.40;99.90;;;;;;6167953;23;20388;-87
2021/05/25 07:29:16;;;;;;;6.97;6.27;;;14.40;99.90;;;;;;6169553;23;20171;-88
2021/05/25 07:31:49;;;;;;;2.60;2.37;;;14.50;99.90;;;;;;6168294;23;20144;-86
2021/05/25 07:34:15;;;;;;;2.90;2.70;;;14.70;99.90;;;;;;6168615;23;20916;-88
2021/05/25 07:36:42;;;;;;;1.90;1.53;;;14.80;99.90;;;;;;6143955;23;20395;-87
2021/05/25 07:39:14;;;;;;;1.40;1.23;;;15.00;99.90;;;;;;6172557;23;20495;-86
2021/05/25 07:41:49;;;;;;;1.80;1.40;;;14.90;99.90;;;;;;6167252;23;20462;-87
2021/05/25 07:44:20;;;;;;;4.33;3.40;;;14.60;99.90;;;;;;6169335;23;20403;-87
2021/05/25 07:46:47;;;;;;;2.17;1.67;;;14.60;99.90;;;;;;6167862;23;20723;-86
2021/05/25 07:49:23;;;;;;;2.83;1.27;;;14.60;99.90;;;;;;6142675;23;20423;-87
2021/05/25 07:52:00;;;;;;;1.77;1.17;;;14.50;99.90;;;;;;6167380;23;20352;-88
2021/05/25 07:54:41;;;;;;;2.07;1.43;;;14.70;99.90;;;;;;6167144;23;20369;-89
2021/05/25 07:57:07;;;;;;;1.63;1.53;;;14.80;99.90;;;;;;6168560;23;20433;-87
2021/05/25 07:59:41;;;;;;;3.43;1.47;;;14.90;99.90;;;;;;6169778;23;20461;-86
2021/05/25 08:02:42;;;;;;;1.67;1.20;;;14.70;99.90;;;;;;6168645;23;20364;-86
2021/05/25 08:05:09;;;;;;;1.50;1.00;;;14.50;99.90;;;;;;6168845;23;20376;-85
2021/05/25 08:07:36;;;;;;;3.20;1.70;;;14.40;99.90;;;;;;6175639;23;20723;-87
2021/05/25 08:10:05;;;;;;;1.57;1.47;;;14.50;99.90;;;;;;6144279;23;20388;-85
2021/05/25 08:12:36;;;;;;;6.07;1.63;;;14.70;99.90;;;;;;6148526;23;20372;-87
2021/05/25 08:15:06;;;;;;;2.10;1.67;;;14.90;99.90;;;;;;6175214;23;20472;-87
2021/05/25 08:17:48;;;;;;;3.33;3.03;;;15.10;99.90;;;;;;6149233;23;20447;-86
2021/05/25 08:20:19;;;;;;;2.47;1.57;;;15.20;99.90;;;;;;6181019;23;20387;-86
2021/05/25 08:22:54;;;;;;;1.57;1.30;;;15.20;99.90;;;;;;6181129;23;20460;-86
2021/05/25 08:25:40;;;;;;;3.07;1.40;;;15.40;99.90;;;;;;6155209;23;20378;-88
2021/05/25 08:28:19;;;;;;;1.90;1.30;;;15.50;99.90;;;;;;6173482;23;20401;-88
2021/05/25 08:30:59;;;;;;;3.53;1.90;;;15.60;99.90;;;;;;6175713;23;20368;-88
2021/05/25 08:33:31;;;;;;;5.13;4.63;;;15.60;99.90;;;;;;6174733;23;20424;-88
2021/05/25 08:36:00;;;;;;;2.60;1.80;;;15.60;99.90;;;;;;6175511;23;20391;-87
2021/05/25 08:38:26;;;;;;;4.80;3.00;;;15.40;99.90;;;;;;6176872;23;20385;-87
2021/05/25 08:40:55;;;;;;;2.93;2.20;;;15.30;99.90;;;;;;6153372;23;20383;-88
2021/05/25 08:43:25;;;;;;;4.67;2.70;;;15.30;99.90;;;;;;6175808;23;20449;-87
2021/05/25 08:45:51;;;;;;;6.87;1.90;;;15.60;99.90;;;;;;6151216;23;20404;-86
2021/05/25 08:48:19;;;;;;;6.13;2.63;;;15.90;99.90;;;;;;6170656;23;20422;-87
2021/05/25 08:50:45;;;;;;;10.43;1.80;;;16.00;99.90;;;;;;6169842;23;20374;-87
2021/05/25 08:53:12;;;;;;;2.40;1.27;;;16.20;99.90;;;;;;6169957;23;20430;-88
2021/05/25 08:55:39;;;;;;;2.33;1.60;;;16.20;99.90;;;;;;6171577;23;20722;-87
2021/05/25 08:58:18;;;;;;;;;;;;;;;;;;;;;
2021/05/25 09:00:53;;;;;;;6.50;2.80;;;16.00;99.90;;;;;;6171623;23;20403;-87
2021/05/25 09:03:20;;;;;;;7.67;3.00;;;16.40;99.90;;;;;;6121970;23;20793;-86
2021/05/25 09:06:07;;;;;;;1.53;1.43;;;16.50;99.90;;;;;;6122449;23;20383;-87
2021/05/25 09:08:35;;;;;;;1.20;1.00;;;16.60;99.90;;;;;;6147946;23;20418;-87
2021/05/25 09:11:13;;;;;;;2.70;1.80;;;16.70;99.90;;;;;;6145320;23;20453;-87
2021/05/25 09:13:42;;;;;;;2.50;2.10;;;16.50;99.90;;;;;;6121568;23;20382;-87
2021/05/25 09:16:09;;;;;;;2.40;1.50;;;16.70;99.90;;;;;;6145819;23;20426;-87
2021/05/25 09:18:49;;;;;;;1.93;1.23;;;16.60;99.90;;;;;;6172078;23;20434;-87
2021/05/25 09:21:35;;;;;;;5.17;1.60;;;16.80;99.90;;;;;;6145088;23;20393;-88
2021/05/25 09:24:05;;;;;;;3.60;1.60;;;16.90;99.90;;;;;;6145507;23;20494;-88
2021/05/25 09:26:34;;;;;;;2.23;1.67;;;16.80;99.90;;;;;;6147089;23;20410;-89
2021/05/25 09:29:03;;;;;;;2.73;2.17;;;17.10;99.90;;;;;;6171942;23;20510;-89
2021/05/25 09:31:42;;;;;;;2.20;2.00;;;17.00;99.90;;;;;;6171351;23;20372;-86
2021/05/25 09:34:15;;;;;;;2.60;2.30;;;17.30;99.90;;;;;;6147749;23;20396;-88
2021/05/25 09:37:05;;;;;;;1.50;1.20;;;17.50;99.90;;;;;;6145151;23;20478;-88
2021/05/25 09:39:41;;;;;;;4.27;2.50;;;17.80;99.90;;;;;;6170009;23;20372;-87
2021/05/25 09:42:10;;;;;;;1.53;1.40;;;17.80;99.90;;;;;;6145911;23;20397;-87
2021/05/25 09:44:37;;;;;;;3.13;1.83;;;17.60;99.90;;;;;;6171076;23;20374;-85
2021/05/25 09:47:05;;;;;;;4.00;2.73;;;17.70;99.90;;;;;;6171365;23;20394;-88
2021/05/25 09:49:43;;;;;;;2.63;1.50;;;17.60;99.90;;;;;;6171904;23;20400;-88
2021/05/25 09:52:12;;;;;;;1.73;1.63;;;17.90;99.90;;;;;;6170871;23;20362;-87
2021/05/25 09:54:41;;;;;;;7.43;2.70;;;18.40;99.90;;;;;;6144885;23;20462;-87
2021/05/25 09:57:08;;;;;;;3.10;2.30;;;17.90;99.90;;;;;;6170348;23;20510;-88
2021/05/25 09:59:41;;;;;;;1.97;1.43;;;18.00;99.90;;;;;;6171308;23;20442;-88
2021/05/25 10:02:25;;;;;;;3.93;2.60;;;18.30;99.90;;;;;;6144562;23;20418;-87
2021/05/25 10:05:02;;;;;;;2.23;1.83;;;18.60;99.90;;;;;;6172416;23;20360;-87
2021/05/25 10:07:36;;;;;;;1.47;1.13;;;18.80;99.90;;;;;;6149053;23;20948;-86
2021/05/25 10:10:15;;;;;;;1.63;1.23;;;19.10;99.90;;;;;;6146074;23;20472;-89
2021/05/25 10:12:51;;;;;;;4.67;2.80;;;19.00;99.90;;;;;;6170230;23;20822;-87
2021/05/25 10:15:34;;;;;;;3.57;2.00;;;18.30;99.90;;;;;;6148517;23;20352;-87
2021/05/25 10:20:35;;;;;;;2.53;2.00;;;17.20;99.90;;;;;;6170675;23;20426;-88
2021/05/25 10:23:05;;;;;;;2.17;1.40;;;16.90;99.90;;;;;;6149477;23;20374;-87
2021/05/25 10:25:34;;;;;;;3.07;1.40;;;16.60;99.90;;;;;;6152010;23;20399;-87
2021/05/25 10:28:12;;;;;;;1.93;1.10;;;16.10;99.90;;;;;;6121012;23;20434;-87
2021/05/25 10:30:44;;;;;;;1.10;1.00;;;15.90;99.90;;;;;;6119279;23;20398;-87
2021/05/25 10:33:17;;;;;;;1.27;1.17;;;15.80;99.90;;;;;;6168274;23;20408;-87
2021/05/25 10:36:04;;;;;;;1.47;1.00;;;15.90;99.90;;;;;;6144925;23;20371;-85
2021/05/25 10:38:34;;;;;;;1.00;0.90;;;15.80;99.90;;;;;;6144741;23;20361;-87
2021/05/25 10:41:04;;;;;;;2.30;1.63;;;15.60;99.90;;;;;;6169318;23;20371;-87
2021/05/25 10:44:25;;;;;;;1.03;0.80;;;14.70;99.90;;;;;;6122211;23;20531;-87
2021/05/25 10:47:22;;;;;;;3.83;1.40;;;13.90;99.90;;;;;;6145479;23;20415;-85
2021/05/25 10:50:17;;;;;;;1.30;1.13;;;13.30;99.90;;;;;;6175925;23;20455;-88
2021/05/25 10:52:56;;;;;;;1.17;1.07;;;13.50;99.90;;;;;;6150171;23;20390;-86
2021/05/25 10:55:31;;;;;;;1.53;1.10;;;13.90;99.90;;;;;;6173428;23;20374;-86
2021/05/25 10:57:58;;;;;;;4.20;1.33;;;13.80;99.90;;;;;;6173462;23;20394;-87
2021/05/25 11:00:41;;;;;;;2.60;1.83;;;13.30;99.90;;;;;;6122537;23;20883;-87
2021/05/25 11:03:16;;;;;;;6.63;1.93;;;11.70;99.90;;;;;;6169323;23;20367;-85
2021/05/25 11:06:31;;;;;;;1.63;1.47;;;10.70;99.90;;;;;;6119641;23;20407;-85
2021/05/25 11:09:28;;;;;;;7.73;5.80;;;10.40;99.90;;;;;;6147238;23;20598;-86
2021/05/25 11:12:21;;;;;;;2.17;1.47;;;10.70;99.90;;;;;;6145718;23;20456;-86
2021/05/25 11:15:14;;;;;;;5.53;1.60;;;10.90;99.90;;;;;;6163918;23;20372;-84
2021/05/25 11:17:48;;;;;;;2.40;1.60;;;11.20;99.90;;;;;;6169912;23;20414;-84
2021/05/25 11:20:49;;;;;;;1.80;1.70;;;11.40;99.90;;;;;;6172151;23;20459;-86
2021/05/25 11:23:45;;;;;;;1.73;1.63;;;11.60;99.90;;;;;;6118784;23;20383;-86
2021/05/25 11:26:49;;;;;;;2.50;2.07;;;11.80;99.90;;;;;;6170938;23;20399;-85
2021/05/25 11:29:24;;;;;;;1.70;1.57;;;12.20;99.90;;;;;;6169921;23;20483;-85
2021/05/25 11:31:51;;;;;;;2.83;2.17;;;12.40;99.90;;;;;;6142004;23;20448;-86
2021/05/25 11:34:24;;;;;;;1.50;1.40;;;12.50;99.90;;;;;;6141982;23;20383;-86
2021/05/25 11:37:09;;;;;;;2.40;1.80;;;12.50;99.90;;;;;;6142901;23;20467;-86
2021/05/25 11:39:36;;;;;;;2.40;1.70;;;12.40;99.90;;;;;;6143553;23;20389;-87
2021/05/25 11:42:07;;;;;;;3.10;1.80;;;12.50;99.90;;;;;;6143056;23;20765;-86
2021/05/25 11:44:44;;;;;;;3.73;1.60;;;12.70;99.90;;;;;;6118537;23;20460;-87
2021/05/25 11:47:14;;;;;;;2.73;2.17;;;13.30;99.90;;;;;;6144409;23;20415;-87
2021/05/25 11:49:43;;;;;;;3.83;2.93;;;13.80;99.90;;;;;;6128273;23;20419;-87
2021/05/25 11:52:22;;;;;;;2.30;1.43;;;14.20;99.90;;;;;;6145889;23;20363;-88
2021/05/25 11:54:52;;;;;;;3.57;2.33;;;14.50;99.90;;;;;;6122494;23;20376;-87
2021/05/25 11:57:50;;;;;;;3.40;1.43;;;15.00;99.90;;;;;;6165081;23;20463;-85
2021/05/25 12:01:02;;;;;;;1.77;1.20;;;15.20;99.90;;;;;;6199990;23;20360;-84
2021/05/25 12:07:32;;;;;;;2.07;1.57;;;15.90;99.90;;;;;;6195051;23;20410;-84
2021/05/25 12:10:18;;;;;;;1.20;1.10;;;15.90;99.90;;;;;;6170889;23;20465;-85
2021/05/25 12:13:22;;;;;;;;;;;;;;;;;;;;;
2021/05/25 12:16:23;;;;;;;2.90;1.90;;;15.30;99.90;;;;;;6175610;23;20404;-84
2021/05/25 12:23:54;;;;;;;3.73;3.27;;;15.50;99.90;;;;;;6119951;23;20523;-85
2021/05/25 12:33:47;;;;;;;;;;;;;;;;;;;;;
2021/05/25 12:40:22;;;;;;;;;;;;;;;;;;;;;
2021/05/25 12:43:33;;;;;;;1.57;1.47;;;16.70;99.90;;;;;;6105106;23;20500;-85
2021/05/25 12:47:13;;;;;;;;;;;;;;;;;;;;;
2021/05/25 12:54:16;;;;;;;3.50;1.20;;;16.90;99.90;;;;;;6100813;23;20513;-87
2021/05/25 12:57:54;;;;;;;;;;;;;;;;;;;;;
2021/05/25 13:04:08;;;;;;;;;;;;;;;;;;;;;
2021/05/25 13:11:52;;;;;;;1.30;1.03;;;16.50;99.90;;;;;;6021595;23;20418;-87
2021/05/25 13:15:24;;;;;;;2.77;2.57;;;15.60;99.90;;;;;;5973412;24;20498;-87
2021/05/25 13:18:45;;;;;;;1.30;0.97;;;15.20;99.90;;;;;;6000606;23;20923;-87
2021/05/25 13:21:45;;;;;;;2.30;2.07;;;14.70;99.90;;;;;;6048187;23;20432;-87
2021/05/25 13:25:00;;;;;;;1.37;1.07;;;14.40;99.90;;;;;;5968032;24;20381;-86
2021/05/25 13:41:39;;;;;;;1.73;1.40;;;15.90;99.90;;;;;;6229803;23;20757;-85
2021/05/25 13:44:23;;;;;;;1.60;1.20;;;16.50;99.90;;;;;;6192257;23;20383;-85
2021/05/25 13:48:16;;;;;;;;;;;;;;;;;;;;;
2021/05/25 13:52:35;;;;;;;5.30;1.83;;;17.40;99.90;;;;;;6196640;23;20386;-85
2021/05/25 13:56:01;;;;;;;;;;;;;;;;;;;;;
2021/05/25 14:04:14;;;;;;;;;;;;;;;;;;;;;
2021/05/25 14:14:33;;;;;;;5.10;2.60;;;14.10;99.90;;;;;;6045194;23;20366;-85
2021/05/25 14:17:03;;;;;;;2.37;1.33;;;14.50;99.90;;;;;;6219060;23;20388;-85
2021/05/25 14:19:41;;;;;;;1.87;1.57;;;14.80;99.90;;;;;;6194553;23;20401;-86
2021/05/25 14:23:01;;;;;;;;;;;;;;;;;;;;;
2021/05/25 14:26:11;;;;;;;2.40;1.20;;;15.70;99.90;;;;;;6197646;23;20380;-85
2021/05/25 14:29:25;;;;;;;4.87;1.30;;;15.60;99.90;;;;;;6195424;23;20453;-85
2021/05/25 14:32:27;;;;;;;2.30;2.10;;;15.90;99.90;;;;;;6173253;23;20482;-85
2021/05/25 14:39:20;;;;;;;;;;;;;;;;;;;;;
2021/05/25 14:42:30;;;;;;;1.70;1.53;;;15.90;99.90;;;;;;6209761;23;20378;-84
2021/05/25 14:46:00;;;;;;;1.80;1.70;;;15.70;99.90;;;;;;6221537;23;20376;-86
2021/05/25 14:48:51;;;;;;;;;;;;;;;;;;;;;
2021/05/25 14:51:35;;;;;;;4.90;1.80;;;14.90;99.90;;;;;;6193348;23;20379;-86
2021/05/25 14:54:09;;;;;;;1.57;1.20;;;13.70;99.90;;;;;;6195945;23;20348;-85
2021/05/25 15:01:33;;;;;;;2.03;1.83;;;12.30;99.90;;;;;;6023075;23;20372;-85
2021/05/25 15:11:20;;;;;;;2.50;1.77;;;11.80;99.90;;;;;;5962520;24;20472;-85
2021/05/25 15:15:13;;;;;;;4.03;2.87;;;11.90;99.90;;;;;;5912246;24;20692;-85
2021/05/25 15:22:04;;;;;;;6.70;4.80;;;12.20;99.90;;;;;;5881586;24;20377;-86
2021/05/25 15:25:06;;;;;;;6.30;5.00;;;12.50;99.90;;;;;;5853715;24;20398;-85
2021/05/25 15:28:06;;;;;;;3.47;2.93;;;13.00;99.90;;;;;;5969663;24;20393;-86
2021/05/25 15:31:21;;;;;;;;;;;;;;;;;;;;;
2021/05/25 15:37:50;;;;;;;;;;;;;;;;;;;;;
2021/05/25 15:41:12;;;;;;;;;;;;;;;;;;;;;
2021/05/25 15:44:03;;;;;;;2.90;2.10;;;15.20;99.90;;;;;;6196927;23;20378;-85
2021/05/25 15:46:53;;;;;;;4.47;3.00;;;15.50;99.90;;;;;;6170807;23;20374;-85
2021/05/25 15:49:36;;;;;;;4.37;2.63;;;15.70;99.90;;;;;;6167871;23;20501;-85
2021/05/25 15:52:22;;;;;;;3.93;1.77;;;15.90;99.90;;;;;;6195053;23;20382;-84
2021/05/25 15:55:20;;;;;;;3.80;3.20;;;16.10;99.90;;;;;;6169532;23;20412;-85
2021/05/25 15:58:21;;;;;;;2.23;1.60;;;16.20;99.90;;;;;;6186403;23;20429;-85
2021/05/25 16:05:21;;;;;;;2.00;1.40;;;15.90;99.90;;;;;;6195360;23;20380;-86
2021/05/25 16:08:21;;;;;;;;;;;;;;;;;;;;;
2021/05/25 16:11:22;;;;;;;4.07;3.77;;;14.90;99.90;;;;;;6167094;23;20391;-84
2021/05/25 16:14:01;;;;;;;1.40;1.10;;;14.50;99.90;;;;;;6160176;23;20395;-84
2021/05/25 16:19:57;;;;;;;3.00;2.20;;;13.90;99.90;;;;;;6148049;23;20475;-84
2021/05/25 16:23:01;;;;;;;3.30;2.87;;;13.80;99.90;;;;;;6196400;23;20378;-85
2021/05/25 16:25:45;;;;;;;2.47;1.20;;;13.60;99.90;;;;;;6145176;23;20374;-84
2021/05/25 16:28:36;;;;;;;1.50;1.10;;;13.30;99.90;;;;;;6181188;23;20474;-85
2021/05/25 16:31:24;;;;;;;1.93;1.37;;;13.20;99.90;;;;;;6195414;23;20436;-85
2021/05/25 16:34:01;;;;;;;1.73;0.90;;;13.20;99.90;;;;;;6195899;23;20373;-85